Time;durP1;ratioP1;P1;durP2;ratioP2;P2;SDS_P1;SDS_P2;PMS_P1;PMS_P2;Temp;Humidity;BMP_temperature;BMP_pressure;BME280_temperature;BME280_humidity;BME280_pressure;Samples;Min_cycle;Max_cycle;Signal;HPM_P1;HPM_P2
2021/01/09 00:01:00;;;;;;;15.73;12.70;;;;;;;;;;5111626;28;20192;-47
2021/01/09 00:03:25;;;;;;;13.80;11.00;;;;;;;;;;5114682;27;20179;-47
2021/01/09 00:05:51;;;;;;;14.00;11.57;;;;;;;;;;5110436;27;20263;-47
2021/01/09 00:08:16;;;;;;;12.23;10.93;;;;;;;;;;5108445;27;20180;-47
2021/01/09 00:10:41;;;;;;;13.70;11.20;;;;;;;;;;5111038;28;21173;-47
2021/01/09 00:13:07;;;;;;;13.38;10.88;;;;;;;;;;5115949;27;20200;-47
2021/01/09 00:15:32;;;;;;;11.83;10.40;;;;;;;;;;5111759;28;20178;-47
2021/01/09 00:17:57;;;;;;;14.50;12.13;;;;;;;;;;5113580;27;20222;-47
2021/01/09 00:20:23;;;;;;;13.77;10.75;;;;;;;;;;5110865;27;20592;-47
2021/01/09 00:22:49;;;;;;;13.60;10.83;;;;;;;;;;5117095;27;20604;-47
2021/01/09 00:25:16;;;;;;;13.82;10.68;;;;;;;;;;5119310;27;21196;-47
2021/01/09 00:27:41;;;;;;;15.30;11.80;;;;;;;;;;5108231;28;20186;-47
2021/01/09 00:30:06;;;;;;;13.37;11.70;;;;;;;;;;5114773;27;20712;-46
2021/01/09 00:32:32;;;;;;;13.27;11.13;;;;;;;;;;5110742;28;20263;-46
2021/01/09 00:34:57;;;;;;;14.87;12.57;;;;;;;;;;5109735;27;20181;-46
2021/01/09 00:37:25;;;;;;;14.10;12.02;;;;;;;;;;5115264;27;20179;-46
2021/01/09 00:39:50;;;;;;;15.03;12.63;;;;;;;;;;5110503;28;20286;-46
2021/01/09 00:42:15;;;;;;;13.18;11.32;;;;;;;;;;5116888;27;20696;-46
2021/01/09 00:44:41;;;;;;;14.50;11.40;;;;;;;;;;5110788;28;20543;-46
2021/01/09 00:47:06;;;;;;;13.30;11.00;;;;;;;;;;5110562;27;20177;-47
2021/01/09 00:49:31;;;;;;;12.10;10.80;;;;;;;;;;5114915;27;20672;-47
2021/01/09 00:51:56;;;;;;;13.20;11.00;;;;;;;;;;5113341;27;20270;-46
2021/01/09 00:54:21;;;;;;;14.57;12.13;;;;;;;;;;5113139;27;20177;-46
2021/01/09 00:56:51;;;;;;;15.80;13.00;;;;;;;;;;5110010;27;20176;-46
2021/01/09 00:59:16;;;;;;;15.20;12.10;;;;;;;;;;5109109;28;20196;-47
2021/01/09 01:01:41;;;;;;;16.55;12.45;;;;;;;;;;5114686;27;20642;-47
2021/01/09 01:04:06;;;;;;;15.00;12.20;;;;;;;;;;5111052;28;20202;-47
2021/01/09 01:06:31;;;;;;;13.77;11.82;;;;;;;;;;5109577;28;20189;-47
2021/01/09 01:08:56;;;;;;;15.32;12.75;;;;;;;;;;5111721;28;20672;-47
2021/01/09 01:11:23;;;;;;;15.32;13.15;;;;;;;;;;5109269;28;20234;-47
2021/01/09 01:13:48;;;;;;;17.27;13.07;;;;;;;;;;5111096;27;20601;-47
2021/01/09 01:16:14;;;;;;;19.13;14.10;;;;;;;;;;5109913;27;21180;-48
2021/01/09 01:18:39;;;;;;;16.23;13.00;;;;;;;;;;5125540;27;20662;-47
2021/01/09 01:21:05;;;;;;;16.30;12.52;;;;;;;;;;5110554;28;20717;-47
2021/01/09 01:23:30;;;;;;;17.67;13.90;;;;;;;;;;5112715;28;20322;-47
2021/01/09 01:25:55;;;;;;;17.47;13.33;;;;;;;;;;5110544;28;21167;-47
2021/01/09 01:28:20;;;;;;;17.10;12.95;;;;;;;;;;5112089;28;20175;-47
2021/01/09 01:30:48;;;;;;;19.30;13.52;;;;;;;;;;5110374;28;20186;-47
2021/01/09 01:33:13;;;;;;;15.47;12.70;;;;;;;;;;5114166;28;20170;-47
2021/01/09 01:35:38;;;;;;;16.40;12.90;;;;;;;;;;5111783;28;20604;-47
2021/01/09 01:38:03;;;;;;;17.05;13.15;;;;;;;;;;5113248;28;20311;-47
2021/01/09 01:40:28;;;;;;;14.90;11.60;;;;;;;;;;5111718;28;20190;-47
2021/01/09 01:42:53;;;;;;;22.23;14.15;;;;;;;;;;5110810;27;20658;-47
2021/01/09 01:45:19;;;;;;;16.30;13.33;;;;;;;;;;5123669;27;20191;-47
2021/01/09 01:47:44;;;;;;;18.80;13.67;;;;;;;;;;5112721;28;20190;-47
2021/01/09 01:50:10;;;;;;;16.15;12.40;;;;;;;;;;5114549;27;20226;-46
2021/01/09 01:52:35;;;;;;;16.13;13.10;;;;;;;;;;5113922;28;20185;-46
2021/01/09 01:55:00;;;;;;;20.93;15.23;;;;;;;;;;5121530;27;21255;-47
2021/01/09 01:57:26;;;;;;;22.27;13.47;;;;;;;;;;5110918;28;20178;-46
2021/01/09 01:59:51;;;;;;;16.17;11.73;;;;;;;;;;5114052;27;20194;-47
2021/01/09 02:02:16;;;;;;;15.45;13.07;;;;;;;;;;5119587;27;20236;-46
2021/01/09 02:04:41;;;;;;;18.63;14.13;;;;;;;;;;5114368;27;20878;-46
2021/01/09 02:07:17;;;;;;;18.57;14.33;;;;;;;;;;5113721;28;20171;-46
2021/01/09 02:09:44;;;;;;;14.80;12.73;;;;;;;;;;5113518;27;20223;-47
2021/01/09 02:12:16;;;;;;;18.63;14.47;;;;;;;;;;5113731;28;20594;-48
2021/01/09 02:14:47;;;;;;;17.90;13.57;;;;;;;;;;5123844;27;20613;-46
2021/01/09 02:17:13;;;;;;;17.40;12.77;;;;;;;;;;5131641;27;20595;-46
2021/01/09 02:19:39;;;;;;;18.40;14.50;;;;;;;;;;5121562;27;21233;-47
2021/01/09 02:22:05;;;;;;;17.27;14.13;;;;;;;;;;5113957;28;20727;-47
2021/01/09 02:24:30;;;;;;;15.87;12.10;;;;;;;;;;5115071;27;20615;-46
2021/01/09 02:26:56;;;;;;;19.37;13.50;;;;;;;;;;5113286;27;20691;-47
2021/01/09 02:29:22;;;;;;;19.00;13.40;;;;;;;;;;5109578;28;20678;-46
2021/01/09 02:31:55;;;;;;;17.20;13.57;;;;;;;;;;5114308;27;20199;-47
2021/01/09 02:34:21;;;;;;;18.03;13.77;;;;;;;;;;5113759;28;20645;-47
2021/01/09 02:36:47;;;;;;;16.47;13.07;;;;;;;;;;5115835;27;20603;-46
2021/01/09 02:39:12;;;;;;;15.60;12.03;;;;;;;;;;5125396;27;20175;-46
2021/01/09 02:41:39;;;;;;;18.03;13.40;;;;;;;;;;5109514;28;20175;-47
2021/01/09 02:44:05;;;;;;;17.80;13.87;;;;;;;;;;5112304;28;20702;-46
2021/01/09 02:46:31;;;;;;;18.23;13.37;;;;;;;;;;5110482;28;20627;-46
2021/01/09 02:48:56;;;;;;;15.57;12.57;;;;;;;;;;5109045;27;20709;-47
2021/01/09 02:51:21;;;;;;;18.50;13.80;;;;;;;;;;5111483;28;20186;-47
2021/01/09 02:53:46;;;;;;;17.20;12.88;;;;;;;;;;5120710;27;20274;-47
2021/01/09 02:56:11;;;;;;;18.08;13.60;;;;;;;;;;5114717;27;20197;-47
2021/01/09 02:58:36;;;;;;;16.33;12.32;;;;;;;;;;5112134;27;20521;-45
2021/01/09 03:01:01;;;;;;;16.50;12.60;;;;;;;;;;5114026;27;20201;-46
2021/01/09 03:03:26;;;;;;;17.95;13.68;;;;;;;;;;5113333;28;20181;-46
2021/01/09 03:05:52;;;;;;;18.90;13.40;;;;;;;;;;5120726;27;20179;-46
2021/01/09 03:08:17;;;;;;;21.83;14.75;;;;;;;;;;5112473;27;20179;-45
2021/01/09 03:10:42;;;;;;;17.08;12.48;;;;;;;;;;5125587;27;20175;-46
2021/01/09 03:13:07;;;;;;;16.95;11.95;;;;;;;;;;5115388;27;20268;-46
2021/01/09 03:15:32;;;;;;;14.70;11.73;;;;;;;;;;5112812;28;20181;-46
2021/01/09 03:17:58;;;;;;;14.73;11.05;;;;;;;;;;5118170;27;20654;-47
2021/01/09 03:20:23;;;;;;;13.30;10.37;;;;;;;;;;5116337;27;20271;-46
2021/01/09 03:22:48;;;;;;;14.05;9.80;;;;;;;;;;5119268;27;20239;-46
2021/01/09 03:25:13;;;;;;;17.13;11.10;;;;;;;;;;5112325;28;20682;-46
2021/01/09 03:27:38;;;;;;;15.90;11.43;;;;;;;;;;5117624;27;20178;-46
2021/01/09 03:30:04;;;;;;;13.90;11.17;;;;;;;;;;5110886;27;20208;-46
2021/01/09 03:32:29;;;;;;;13.23;10.63;;;;;;;;;;5112567;28;20218;-46
2021/01/09 03:34:54;;;;;;;13.13;11.32;;;;;;;;;;5116917;27;20182;-46
2021/01/09 03:37:19;;;;;;;14.70;11.57;;;;;;;;;;5112511;27;20186;-46
2021/01/09 03:39:44;;;;;;;14.13;10.67;;;;;;;;;;5109651;27;20615;-47
2021/01/09 03:42:09;;;;;;;16.90;11.68;;;;;;;;;;5128856;27;20589;-46
2021/01/09 03:44:34;;;;;;;14.07;11.33;;;;;;;;;;5120451;27;20638;-47
2021/01/09 03:47:00;;;;;;;16.60;12.13;;;;;;;;;;5111845;27;20209;-47
2021/01/09 03:49:25;;;;;;;17.20;12.00;;;;;;;;;;5120473;27;20254;-46
2021/01/09 03:51:50;;;;;;;14.10;11.38;;;;;;;;;;5110633;27;20180;-47
2021/01/09 03:54:15;;;;;;;16.30;11.35;;;;;;;;;;5111739;27;20222;-46
2021/01/09 03:56:40;;;;;;;14.10;10.70;;;;;;;;;;5111901;28;20528;-46
2021/01/09 03:59:05;;;;;;;16.27;11.90;;;;;;;;;;5110626;27;20181;-46
2021/01/09 04:01:30;;;;;;;15.00;11.18;;;;;;;;;;5115811;27;20201;-46
2021/01/09 04:03:56;;;;;;;15.13;11.27;;;;;;;;;;5119947;27;20209;-47
2021/01/09 04:06:21;;;;;;;13.80;10.68;;;;;;;;;;5110107;28;20181;-47
2021/01/09 04:08:46;;;;;;;16.43;12.17;;;;;;;;;;5114777;27;20203;-47
2021/01/09 04:11:11;;;;;;;16.73;11.00;;;;;;;;;;5115054;27;20179;-47
2021/01/09 04:13:36;;;;;;;16.85;12.18;;;;;;;;;;5110616;27;20168;-46
2021/01/09 04:16:02;;;;;;;15.15;11.55;;;;;;;;;;5111052;28;20171;-45
2021/01/09 04:18:27;;;;;;;14.13;11.27;;;;;;;;;;5109664;27;21084;-45
2021/01/09 04:20:52;;;;;;;18.85;13.00;;;;;;;;;;5109240;28;20646;-45
2021/01/09 04:23:18;;;;;;;16.38;12.52;;;;;;;;;;5114605;27;20180;-45
2021/01/09 04:25:43;;;;;;;14.35;11.00;;;;;;;;;;5111299;28;20665;-46
2021/01/09 04:28:08;;;;;;;14.55;11.68;;;;;;;;;;5121507;27;20195;-46
2021/01/09 04:30:33;;;;;;;16.07;12.20;;;;;;;;;;5109314;28;20228;-46
2021/01/09 04:32:58;;;;;;;15.63;11.73;;;;;;;;;;5113795;27;20185;-46
2021/01/09 04:35:23;;;;;;;15.70;12.25;;;;;;;;;;5111184;28;20182;-46
2021/01/09 04:37:48;;;;;;;13.73;11.15;;;;;;;;;;5112309;27;20642;-46
2021/01/09 04:40:14;;;;;;;18.07;12.47;;;;;;;;;;5117313;27;20202;-46
2021/01/09 04:42:39;;;;;;;15.50;11.60;;;;;;;;;;5109844;27;20178;-46
2021/01/09 04:45:04;;;;;;;16.33;12.20;;;;;;;;;;5110900;28;20194;-46
2021/01/09 04:47:31;;;;;;;14.50;11.73;;;;;;;;;;5114656;27;20184;-46
2021/01/09 04:49:56;;;;;;;17.20;12.00;;;;;;;;;;5107287;28;20201;-47
2021/01/09 04:52:21;;;;;;;18.70;12.97;;;;;;;;;;5110431;27;21197;-46
2021/01/09 04:54:47;;;;;;;17.87;12.90;;;;;;;;;;5109772;27;20259;-47
2021/01/09 04:57:13;;;;;;;17.10;12.13;;;;;;;;;;5110853;28;20164;-46
2021/01/09 04:59:38;;;;;;;15.57;12.07;;;;;;;;;;5109761;27;20662;-46
2021/01/09 05:02:04;;;;;;;15.00;11.27;;;;;;;;;;5110590;28;20175;-46
2021/01/09 05:04:29;;;;;;;17.67;12.30;;;;;;;;;;5110658;28;20216;-46
2021/01/09 05:06:54;;;;;;;15.27;11.90;;;;;;;;;;5110248;28;20218;-46
2021/01/09 05:09:19;;;;;;;17.10;12.95;;;;;;;;;;5118952;27;20611;-46
2021/01/09 05:11:44;;;;;;;16.20;12.30;;;;;;;;;;5111092;28;20187;-47
2021/01/09 05:14:10;;;;;;;18.03;12.03;;;;;;;;;;5118686;27;20181;-46
2021/01/09 05:16:36;;;;;;;17.83;12.60;;;;;;;;;;5121649;27;20183;-46
2021/01/09 05:19:02;;;;;;;16.13;11.63;;;;;;;;;;5111117;28;20606;-47
2021/01/09 05:21:27;;;;;;;15.80;11.70;;;;;;;;;;5091306;28;20661;-47
2021/01/09 05:23:59;;;;;;;19.63;13.20;;;;;;;;;;5089359;28;20624;-47
2021/01/09 05:26:24;;;;;;;18.63;13.50;;;;;;;;;;5075581;28;20233;-47
2021/01/09 05:28:49;;;;;;;18.27;13.03;;;;;;;;;;5087580;28;20654;-46
2021/01/09 05:31:15;;;;;;;18.33;13.37;;;;;;;;;;5092521;28;20638;-46
2021/01/09 05:33:41;;;;;;;19.63;13.80;;;;;;;;;;5090026;28;20263;-46
2021/01/09 05:36:07;;;;;;;15.40;12.60;;;;;;;;;;5090361;28;20200;-46
2021/01/09 05:38:36;;;;;;;17.90;13.07;;;;;;;;;;5092567;28;20670;-46
2021/01/09 05:41:08;;;;;;;17.13;12.80;;;;;;;;;;5088402;28;20211;-46
2021/01/09 05:43:33;;;;;;;19.77;15.00;;;;;;;;;;5099284;28;20648;-46
2021/01/09 05:45:59;;;;;;;18.40;13.53;;;;;;;;;;5103065;28;20659;-46
2021/01/09 05:48:25;;;;;;;15.20;12.77;;;;;;;;;;5093160;28;20178;-46
2021/01/09 05:50:52;;;;;;;16.67;12.60;;;;;;;;;;5087471;28;20604;-46
2021/01/09 05:53:36;;;;;;;18.57;14.33;;;;;;;;;;5090308;28;20566;-46
2021/01/09 05:56:01;;;;;;;19.60;14.37;;;;;;;;;;5092806;28;20616;-46
2021/01/09 05:58:27;;;;;;;17.80;13.60;;;;;;;;;;5089106;28;20642;-46
2021/01/09 06:00:54;;;;;;;19.20;13.87;;;;;;;;;;5087238;28;20578;-46
2021/01/09 06:03:22;;;;;;;17.20;13.40;;;;;;;;;;5090188;28;20242;-46
2021/01/09 06:05:48;;;;;;;19.37;14.13;;;;;;;;;;5088453;28;20618;-46
2021/01/09 06:08:14;;;;;;;19.80;13.83;;;;;;;;;;5091149;28;20615;-46
2021/01/09 06:10:40;;;;;;;20.50;14.67;;;;;;;;;;5093251;28;20607;-47
2021/01/09 06:13:08;;;;;;;19.80;14.50;;;;;;;;;;5098503;28;21234;-46
2021/01/09 06:15:34;;;;;;;18.83;14.27;;;;;;;;;;5100748;28;20979;-46
2021/01/09 06:17:59;;;;;;;21.90;14.67;;;;;;;;;;5088635;28;20620;-46
2021/01/09 06:20:25;;;;;;;17.80;13.20;;;;;;;;;;5097469;28;21228;-47
2021/01/09 06:22:50;;;;;;;20.57;15.10;;;;;;;;;;5118748;28;20187;-46
2021/01/09 06:25:17;;;;;;;19.10;14.13;;;;;;;;;;5108263;28;20667;-47
2021/01/09 06:27:43;;;;;;;20.37;14.40;;;;;;;;;;5110104;28;20179;-46
2021/01/09 06:30:09;;;;;;;20.80;15.43;;;;;;;;;;5110406;28;20644;-47
2021/01/09 06:32:36;;;;;;;19.07;14.53;;;;;;;;;;5113100;27;20607;-47
2021/01/09 06:35:03;;;;;;;19.90;15.60;;;;;;;;;;5113127;27;20231;-47
2021/01/09 06:37:28;;;;;;;25.10;15.10;;;;;;;;;;5111388;27;20614;-46
2021/01/09 06:39:53;;;;;;;22.00;15.98;;;;;;;;;;5111781;27;20689;-46
2021/01/09 06:42:19;;;;;;;20.23;14.93;;;;;;;;;;5110732;28;20214;-47
2021/01/09 06:44:50;;;;;;;20.67;15.07;;;;;;;;;;5111963;28;20186;-46
2021/01/09 06:47:25;;;;;;;21.03;15.13;;;;;;;;;;5112344;28;20599;-46
2021/01/09 06:49:51;;;;;;;22.43;16.13;;;;;;;;;;5110816;28;21005;-45
2021/01/09 06:52:16;;;;;;;20.90;14.60;;;;;;;;;;5113507;28;20588;-45
2021/01/09 06:54:43;;;;;;;20.95;15.43;;;;;;;;;;5112776;28;20209;-45
2021/01/09 06:57:09;;;;;;;23.40;14.93;;;;;;;;;;5112735;28;20175;-45
2021/01/09 06:59:38;;;;;;;24.93;15.27;;;;;;;;;;5108895;28;20650;-46
2021/01/09 07:02:22;;;;;;;18.97;14.47;;;;;;;;;;5113259;28;20952;-45
2021/01/09 07:04:48;;;;;;;19.60;14.00;;;;;;;;;;5112805;27;21003;-46
2021/01/09 07:07:25;;;;;;;21.00;14.90;;;;;;;;;;5112636;28;20573;-45
2021/01/09 07:09:51;;;;;;;19.70;14.90;;;;;;;;;;5109150;28;20195;-45
2021/01/09 07:12:17;;;;;;;16.90;13.97;;;;;;;;;;5111941;28;20643;-46
2021/01/09 07:14:42;;;;;;;20.73;14.97;;;;;;;;;;5111617;28;20176;-46
2021/01/09 07:17:09;;;;;;;20.20;14.20;;;;;;;;;;5112178;28;20624;-46
2021/01/09 07:19:35;;;;;;;24.20;15.70;;;;;;;;;;5109734;28;20556;-45
2021/01/09 07:22:02;;;;;;;20.17;14.77;;;;;;;;;;5112469;28;20617;-45
2021/01/09 07:24:29;;;;;;;22.93;16.40;;;;;;;;;;5112550;28;20637;-45
2021/01/09 07:26:54;;;;;;;21.00;15.30;;;;;;;;;;5112108;28;20626;-46
2021/01/09 07:29:28;;;;;;;19.63;14.90;;;;;;;;;;5111426;28;20647;-46
2021/01/09 07:31:53;;;;;;;17.50;13.33;;;;;;;;;;5112567;28;20205;-46
2021/01/09 07:34:20;;;;;;;19.48;15.10;;;;;;;;;;5112739;28;20983;-45
2021/01/09 07:36:49;;;;;;;19.83;14.13;;;;;;;;;;5112053;28;20458;-45
2021/01/09 07:39:14;;;;;;;19.53;14.90;;;;;;;;;;5110844;28;21013;-46
2021/01/09 07:41:39;;;;;;;21.27;15.50;;;;;;;;;;5110302;28;20637;-45
2021/01/09 07:44:10;;;;;;;18.37;14.33;;;;;;;;;;5112253;28;20262;-45
2021/01/09 07:46:36;;;;;;;19.77;15.30;;;;;;;;;;5112870;28;20624;-46
2021/01/09 07:49:02;;;;;;;17.70;14.00;;;;;;;;;;5111566;28;20636;-45
2021/01/09 07:52:01;;;;;;;17.87;13.80;;;;;;;;;;5108428;28;20172;-45
2021/01/09 07:54:34;;;;;;;18.27;14.47;;;;;;;;;;5075920;28;21221;-45
2021/01/09 07:56:59;;;;;;;21.07;14.77;;;;;;;;;;5112475;28;20571;-45
2021/01/09 07:59:24;;;;;;;18.27;14.67;;;;;;;;;;5111888;28;21308;-44
2021/01/09 08:01:49;;;;;;;20.33;15.85;;;;;;;;;;5112467;28;20330;-45
2021/01/09 08:04:14;;;;;;;17.23;14.40;;;;;;;;;;5111980;28;20172;-45
2021/01/09 08:06:40;;;;;;;19.27;14.83;;;;;;;;;;5111498;28;20175;-44
2021/01/09 08:09:05;;;;;;;18.47;13.97;;;;;;;;;;5111038;28;20196;-45
2021/01/09 08:11:31;;;;;;;19.37;14.27;;;;;;;;;;5110237;28;20179;-45
2021/01/09 08:14:02;;;;;;;19.53;14.00;;;;;;;;;;5111790;28;20649;-45
2021/01/09 08:16:27;;;;;;;16.67;13.77;;;;;;;;;;5112086;28;20164;-45
2021/01/09 08:18:52;;;;;;;17.23;13.63;;;;;;;;;;5111714;28;20596;-45
2021/01/09 08:21:21;;;;;;;15.20;12.53;;;;;;;;;;5109444;28;20726;-45
2021/01/09 08:23:55;;;;;;;18.57;13.57;;;;;;;;;;5118221;27;20182;-45
2021/01/09 08:26:22;;;;;;;13.87;11.77;;;;;;;;;;5092865;28;20590;-45
2021/01/09 08:28:47;;;;;;;14.70;12.20;;;;;;;;;;5115523;27;21202;-45
2021/01/09 08:31:13;;;;;;;16.23;13.27;;;;;;;;;;5107630;27;20620;-45
2021/01/09 08:33:38;;;;;;;12.50;11.10;;;;;;;;;;5107757;27;20607;-45
2021/01/09 08:36:03;;;;;;;15.32;12.48;;;;;;;;;;5125581;27;20237;-42
2021/01/09 08:38:28;;;;;;;14.17;12.40;;;;;;;;;;5111621;27;20194;-41
2021/01/09 08:41:00;;;;;;;16.77;12.97;;;;;;;;;;5107560;28;20195;-41
2021/01/09 08:43:25;;;;;;;14.27;11.10;;;;;;;;;;5109184;28;20193;-41
2021/01/09 08:45:54;;;;;;;15.70;12.37;;;;;;;;;;5110318;28;20679;-41
2021/01/09 08:48:23;;;;;;;15.43;12.17;;;;;;;;;;5109844;28;20195;-41
2021/01/09 08:50:57;;;;;;;16.17;12.63;;;;;;;;;;5107921;28;20664;-42
2021/01/09 08:53:24;;;;;;;14.77;12.60;;;;;;;;;;5109727;28;20686;-42
2021/01/09 08:55:51;;;;;;;18.93;12.97;;;;;;;;;;5109842;28;21059;-42
2021/01/09 08:58:17;;;;;;;14.70;11.00;;;;;;;;;;5107657;28;20697;-42
2021/01/09 09:00:42;;;;;;;15.50;12.07;;;;;;;;;;5108907;28;20677;-42
2021/01/09 09:03:10;;;;;;;15.90;12.37;;;;;;;;;;5110267;28;20171;-42
2021/01/09 09:05:37;;;;;;;16.60;13.07;;;;;;;;;;5110764;28;20194;-42
2021/01/09 09:08:03;;;;;;;17.00;13.40;;;;;;;;;;5109854;28;20642;-42
2021/01/09 09:10:30;;;;;;;12.77;11.20;;;;;;;;;;5105399;28;20674;-42
2021/01/09 09:13:13;;;;;;;13.67;11.50;;;;;;;;;;5111122;28;20647;-41
2021/01/09 09:15:38;;;;;;;12.50;10.90;;;;;;;;;;5110866;28;20592;-42
2021/01/09 09:18:04;;;;;;;14.70;11.82;;;;;;;;;;5110361;28;20659;-42
2021/01/09 09:20:30;;;;;;;16.37;12.53;;;;;;;;;;5108813;28;20230;-42
2021/01/09 09:22:55;;;;;;;13.50;10.87;;;;;;;;;;5111038;28;20168;-41
2021/01/09 09:25:23;;;;;;;12.85;11.18;;;;;;;;;;5110894;28;21206;-41
2021/01/09 09:27:49;;;;;;;13.50;11.00;;;;;;;;;;5110567;28;20264;-42
2021/01/09 09:30:15;;;;;;;13.43;11.37;;;;;;;;;;5107977;28;20677;-43
2021/01/09 09:32:43;;;;;;;13.50;11.60;;;;;;;;;;5108725;28;20614;-42
2021/01/09 09:35:20;;;;;;;12.50;11.20;;;;;;;;;;5110355;28;20566;-42
2021/01/09 09:37:46;;;;;;;13.77;10.97;;;;;;;;;;5109715;28;20592;-42
2021/01/09 09:40:24;;;;;;;11.63;10.10;;;;;;;;;;5106098;28;21240;-42
2021/01/09 09:42:49;;;;;;;12.80;11.40;;;;;;;;;;5108427;28;20172;-43
2021/01/09 09:45:16;;;;;;;11.97;10.63;;;;;;;;;;5109572;28;20791;-42
2021/01/09 09:47:45;;;;;;;11.87;10.60;;;;;;;;;;5109539;28;20698;-42
2021/01/09 09:50:12;;;;;;;12.50;10.00;;;;;;;;;;5106888;28;20640;-42
2021/01/09 09:52:37;;;;;;;12.33;9.60;;;;;;;;;;5109243;28;21145;-42
2021/01/09 09:55:03;;;;;;;11.88;10.57;;;;;;;;;;5109621;28;20598;-42
2021/01/09 09:57:28;;;;;;;13.00;10.83;;;;;;;;;;5106334;28;20173;-42
2021/01/09 10:00:20;;;;;;;12.63;10.63;;;;;;;;;;5089377;28;20624;-43
2021/01/09 10:02:55;;;;;;;12.17;10.60;;;;;;;;;;5102582;28;20180;-42
2021/01/09 10:05:21;;;;;;;12.60;10.70;;;;;;;;;;5111805;28;20589;-42
2021/01/09 10:07:46;;;;;;;12.13;10.20;;;;;;;;;;5113612;28;21234;-42
2021/01/09 10:10:14;;;;;;;13.43;10.57;;;;;;;;;;5113270;28;20212;-42
2021/01/09 10:14:37;;;;;;;13.30;11.07;;;;;;;;;;5093782;27;20287;-42
2021/01/09 10:17:02;;;;;;;14.43;11.17;;;;;;;;;;5087277;28;21047;-42
2021/01/09 10:19:27;;;;;;;11.20;9.68;;;;;;;;;;5087034;28;20999;-42
2021/01/09 10:21:52;;;;;;;12.75;10.65;;;;;;;;;;5083431;28;20696;-42
2021/01/09 10:24:18;;;;;;;12.43;9.63;;;;;;;;;;5081682;28;20179;-43
2021/01/09 10:26:43;;;;;;;10.30;9.20;;;;;;;;;;5067131;28;20192;-42
2021/01/09 10:29:08;;;;;;;10.15;9.10;;;;;;;;;;5067092;28;20648;-42
2021/01/09 10:31:37;;;;;;;12.32;10.73;;;;;;;;;;5065596;28;20272;-42
2021/01/09 10:34:06;;;;;;;11.20;10.10;;;;;;;;;;5047278;28;20264;-43
2021/01/09 10:36:32;;;;;;;10.97;9.43;;;;;;;;;;5068576;28;20605;-42
2021/01/09 10:38:58;;;;;;;10.43;9.40;;;;;;;;;;5066990;28;21128;-43
2021/01/09 10:41:23;;;;;;;11.23;9.93;;;;;;;;;;5065204;28;20608;-43
2021/01/09 10:43:49;;;;;;;12.00;10.80;;;;;;;;;;5066713;28;20179;-42
2021/01/09 10:46:18;;;;;;;10.77;9.67;;;;;;;;;;5068124;28;20213;-42
2021/01/09 10:48:43;;;;;;;10.70;9.80;;;;;;;;;;5065541;28;20177;-43
2021/01/09 10:51:12;;;;;;;10.03;9.03;;;;;;;;;;5063990;28;20604;-42
2021/01/09 10:53:37;;;;;;;11.30;10.10;;;;;;;;;;5066863;28;20206;-42
2021/01/09 10:56:02;;;;;;;10.88;9.43;;;;;;;;;;5070536;28;20604;-42
2021/01/09 10:58:27;;;;;;;10.75;9.65;;;;;;;;;;5068550;28;20247;-42
2021/01/09 11:00:52;;;;;;;10.38;9.35;;;;;;;;;;5064173;28;20178;-43
2021/01/09 11:03:18;;;;;;;10.60;9.33;;;;;;;;;;5063718;28;20164;-42
2021/01/09 11:05:44;;;;;;;11.90;10.07;;;;;;;;;;5065788;28;20242;-42
2021/01/09 11:08:10;;;;;;;12.03;10.50;;;;;;;;;;5084195;28;20312;-42
2021/01/09 11:10:35;;;;;;;13.27;9.67;;;;;;;;;;5070335;28;21243;-42
2021/01/09 11:13:00;;;;;;;9.77;8.77;;;;;;;;;;5071038;28;20232;-42
2021/01/09 11:15:25;;;;;;;10.68;8.95;;;;;;;;;;5087871;28;20190;-42
2021/01/09 11:18:08;;;;;;;10.93;9.50;;;;;;;;;;5084939;28;20178;-42
2021/01/09 11:20:33;;;;;;;10.27;9.23;;;;;;;;;;5084816;28;20230;-42
2021/01/09 11:22:58;;;;;;;12.13;10.82;;;;;;;;;;5084871;28;20602;-42
2021/01/09 11:25:24;;;;;;;10.70;9.57;;;;;;;;;;5075621;28;20249;-43
2021/01/09 11:27:49;;;;;;;11.75;10.15;;;;;;;;;;5074409;28;20189;-42
2021/01/09 11:30:14;;;;;;;10.90;9.80;;;;;;;;;;5071648;28;20274;-42
2021/01/09 11:32:40;;;;;;;12.97;11.00;;;;;;;;;;5070327;28;20213;-43
2021/01/09 11:35:05;;;;;;;11.65;10.30;;;;;;;;;;5071412;28;20175;-43
2021/01/09 11:37:30;;;;;;;11.20;10.10;;;;;;;;;;5063175;28;20709;-43
2021/01/09 11:39:55;;;;;;;11.45;10.10;;;;;;;;;;5070591;28;20668;-42
2021/01/09 11:42:21;;;;;;;10.50;9.50;;;;;;;;;;5068759;28;20265;-42
2021/01/09 11:44:46;;;;;;;11.60;9.83;;;;;;;;;;5071568;28;20182;-43
2021/01/09 11:47:11;;;;;;;10.60;9.50;;;;;;;;;;5072498;28;20516;-43
2021/01/09 11:49:36;;;;;;;10.25;8.93;;;;;;;;;;5071613;28;20177;-43
2021/01/09 11:52:01;;;;;;;9.82;8.82;;;;;;;;;;5068951;28;20178;-43
2021/01/09 11:54:27;;;;;;;10.40;9.27;;;;;;;;;;5067750;28;20563;-43
2021/01/09 11:56:59;;;;;;;9.40;8.50;;;;;;;;;;5071553;28;20175;-43
2021/01/09 11:59:25;;;;;;;10.23;9.13;;;;;;;;;;5063523;28;20210;-43
2021/01/09 12:01:50;;;;;;;10.50;8.60;;;;;;;;;;5069946;28;20617;-42
2021/01/09 12:04:15;;;;;;;9.10;7.80;;;;;;;;;;5071788;28;20197;-43
2021/01/09 12:06:40;;;;;;;10.02;8.27;;;;;;;;;;5071868;28;20186;-43
2021/01/09 12:09:06;;;;;;;10.63;9.27;;;;;;;;;;5073427;28;20570;-43
2021/01/09 12:11:32;;;;;;;10.07;8.13;;;;;;;;;;5073616;28;20178;-42
2021/01/09 12:13:57;;;;;;;10.83;7.67;;;;;;;;;;5071045;28;20654;-43
2021/01/09 12:16:28;;;;;;;8.48;7.57;;;;;;;;;;5070199;28;20183;-47
2021/01/09 12:18:54;;;;;;;9.70;8.47;;;;;;;;;;5068454;28;20639;-43
2021/01/09 12:21:19;;;;;;;9.93;8.90;;;;;;;;;;5069424;28;20628;-43
2021/01/09 12:23:44;;;;;;;9.30;7.97;;;;;;;;;;5069046;28;20183;-43
2021/01/09 12:26:09;;;;;;;9.27;8.27;;;;;;;;;;5069396;28;20185;-43
2021/01/09 12:28:36;;;;;;;9.07;7.88;;;;;;;;;;5071426;28;20175;-43
2021/01/09 12:31:01;;;;;;;9.80;7.53;;;;;;;;;;5065417;28;20301;-43
2021/01/09 12:33:26;;;;;;;10.30;7.87;;;;;;;;;;5069208;28;20672;-43
2021/01/09 12:35:51;;;;;;;9.88;8.32;;;;;;;;;;5065922;28;20269;-43
2021/01/09 12:38:16;;;;;;;10.80;8.70;;;;;;;;;;5068384;28;20183;-42
2021/01/09 12:40:42;;;;;;;10.90;8.63;;;;;;;;;;5067096;28;20174;-43
2021/01/09 12:43:07;;;;;;;11.20;9.37;;;;;;;;;;5066480;28;20174;-44
2021/01/09 12:45:32;;;;;;;11.37;9.00;;;;;;;;;;5068176;28;20582;-43
2021/01/09 12:47:58;;;;;;;12.80;9.67;;;;;;;;;;5068997;28;20387;-43
2021/01/09 12:50:23;;;;;;;11.80;9.37;;;;;;;;;;5068211;28;20193;-43
2021/01/09 12:52:49;;;;;;;11.83;9.73;;;;;;;;;;5067599;28;20641;-43
2021/01/09 12:55:14;;;;;;;11.27;9.73;;;;;;;;;;5067123;28;20199;-42
2021/01/09 12:57:39;;;;;;;11.23;10.07;;;;;;;;;;5067067;28;20162;-43
2021/01/09 13:00:05;;;;;;;13.93;10.60;;;;;;;;;;5067048;28;20212;-43
2021/01/09 13:02:30;;;;;;;12.30;10.73;;;;;;;;;;5065398;28;20681;-43
2021/01/09 13:04:55;;;;;;;13.33;9.93;;;;;;;;;;5065357;28;20188;-43
2021/01/09 13:07:20;;;;;;;14.67;11.03;;;;;;;;;;5067679;28;20180;-42
2021/01/09 13:09:46;;;;;;;16.50;12.37;;;;;;;;;;5081569;28;20184;-43
2021/01/09 13:12:11;;;;;;;14.10;11.03;;;;;;;;;;5063800;28;20191;-43
2021/01/09 13:14:36;;;;;;;15.17;10.67;;;;;;;;;;5067108;28;20255;-43
2021/01/09 13:17:03;;;;;;;14.40;11.00;;;;;;;;;;5067432;28;20191;-43
2021/01/09 13:19:30;;;;;;;12.90;10.07;;;;;;;;;;5068479;28;20172;-41
2021/01/09 13:21:57;;;;;;;12.50;10.27;;;;;;;;;;5064820;28;20611;-41
2021/01/09 13:24:22;;;;;;;13.93;10.77;;;;;;;;;;5066492;28;20627;-41
2021/01/09 13:26:48;;;;;;;12.00;10.17;;;;;;;;;;5067383;28;21394;-42
2021/01/09 13:29:13;;;;;;;11.87;9.40;;;;;;;;;;5049560;28;20252;-42
2021/01/09 13:31:39;;;;;;;12.77;10.03;;;;;;;;;;5054568;28;20210;-42
2021/01/09 13:34:05;;;;;;;10.80;9.63;;;;;;;;;;5066724;28;20216;-42
2021/01/09 13:36:31;;;;;;;10.73;9.10;;;;;;;;;;5065305;28;21048;-42
2021/01/09 13:38:56;;;;;;;10.70;8.80;;;;;;;;;;5060265;28;20728;-42
2021/01/09 13:41:21;;;;;;;10.83;9.40;;;;;;;;;;5066653;28;20706;-42
2021/01/09 13:43:47;;;;;;;10.20;9.10;;;;;;;;;;5065279;28;20188;-42
2021/01/09 13:46:21;;;;;;;9.63;8.27;;;;;;;;;;5066925;28;20182;-42
2021/01/09 13:48:47;;;;;;;10.57;9.47;;;;;;;;;;5066100;28;20189;-42
2021/01/09 13:51:22;;;;;;;11.20;9.83;;;;;;;;;;5066615;28;20604;-42
2021/01/09 13:53:48;;;;;;;9.13;8.23;;;;;;;;;;5055915;28;20199;-42
2021/01/09 13:56:13;;;;;;;9.10;8.20;;;;;;;;;;5070042;28;20612;-42
2021/01/09 13:58:38;;;;;;;8.63;7.57;;;;;;;;;;5067903;28;20272;-42
2021/01/09 14:01:03;;;;;;;8.50;7.50;;;;;;;;;;5071245;28;20175;-42
2021/01/09 14:03:28;;;;;;;6.93;6.32;;;;;;;;;;5066206;28;20177;-42
2021/01/09 14:05:53;;;;;;;8.27;7.15;;;;;;;;;;5065594;28;20173;-42
2021/01/09 14:08:19;;;;;;;9.10;8.23;;;;;;;;;;5066190;28;20182;-42
2021/01/09 14:10:44;;;;;;;9.90;8.65;;;;;;;;;;5068169;28;20234;-42
2021/01/09 14:13:09;;;;;;;7.70;6.93;;;;;;;;;;5067635;28;20243;-42
2021/01/09 14:15:34;;;;;;;7.50;6.70;;;;;;;;;;5069641;28;20178;-42
2021/01/09 14:17:59;;;;;;;8.70;6.80;;;;;;;;;;5067637;28;20633;-42